sensor_id;sensor_type;location;lat;lon;timestamp;P1;durP1;ratioP1;P2;durP2;ratioP2
11596;SDS011;5854;48.072;16.286;2023-06-10T00:01:17;1.60;;;1.50;;
11596;SDS011;5854;48.072;16.286;2023-06-10T00:03:46;1.52;;;1.42;;
11596;SDS011;5854;48.072;16.286;2023-06-10T00:06:13;1.45;;;1.35;;
11596;SDS011;5854;48.072;16.286;2023-06-10T00:08:40;3.85;;;1.27;;
11596;SDS011;5854;48.072;16.286;2023-06-10T00:11:07;1.75;;;1.60;;
11596;SDS011;5854;48.072;16.286;2023-06-10T00:13:35;1.45;;;1.23;;
11596;SDS011;5854;48.072;16.286;2023-06-10T00:16:02;1.58;;;1.48;;
11596;SDS011;5854;48.072;16.286;2023-06-10T00:18:30;1.85;;;1.63;;
11596;SDS011;5854;48.072;16.286;2023-06-10T00:20:58;1.58;;;1.48;;
11596;SDS011;5854;48.072;16.286;2023-06-10T00:23:29;1.48;;;1.38;;
11596;SDS011;5854;48.072;16.286;2023-06-10T00:25:57;1.63;;;1.50;;
11596;SDS011;5854;48.072;16.286;2023-06-10T00:28:25;1.63;;;1.52;;
11596;SDS011;5854;48.072;16.286;2023-06-10T00:30:52;3.20;;;1.90;;
11596;SDS011;5854;48.072;16.286;2023-06-10T00:33:19;4.07;;;1.83;;
11596;SDS011;5854;48.072;16.286;2023-06-10T00:35:46;2.40;;;2.10;;
11596;SDS011;5854;48.072;16.286;2023-06-10T00:38:15;18.30;;;4.30;;
11596;SDS011;5854;48.072;16.286;2023-06-10T00:40:42;1.77;;;1.50;;
11596;SDS011;5854;48.072;16.286;2023-06-10T00:43:09;2.00;;;1.88;;
11596;SDS011;5854;48.072;16.286;2023-06-10T00:45:36;2.08;;;1.35;;
11596;SDS011;5854;48.072;16.286;2023-06-10T00:48:03;2.70;;;1.67;;
11596;SDS011;5854;48.072;16.286;2023-06-10T00:50:31;6.18;;;1.65;;
11596;SDS011;5854;48.072;16.286;2023-06-10T00:52:59;27.42;;;14.43;;
11596;SDS011;5854;48.072;16.286;2023-06-10T00:55:29;5.15;;;2.22;;
11596;SDS011;5854;48.072;16.286;2023-06-10T00:57:57;3.92;;;1.63;;
11596;SDS011;5854;48.072;16.286;2023-06-10T01:00:25;1.40;;;1.30;;
11596;SDS011;5854;48.072;16.286;2023-06-10T01:02:52;3.67;;;1.48;;
11596;SDS011;5854;48.072;16.286;2023-06-10T01:05:20;2.25;;;2.03;;
11596;SDS011;5854;48.072;16.286;2023-06-10T01:07:49;1.95;;;1.77;;
11596;SDS011;5854;48.072;16.286;2023-06-10T01:10:24;1.73;;;1.63;;
11596;SDS011;5854;48.072;16.286;2023-06-10T01:13:00;2.85;;;1.92;;
11596;SDS011;5854;48.072;16.286;2023-06-10T01:15:29;2.90;;;1.55;;
11596;SDS011;5854;48.072;16.286;2023-06-10T01:17:57;2.50;;;2.40;;
11596;SDS011;5854;48.072;16.286;2023-06-10T01:20:27;2.53;;;2.33;;
11596;SDS011;5854;48.072;16.286;2023-06-10T01:22:56;2.47;;;2.28;;
11596;SDS011;5854;48.072;16.286;2023-06-10T01:25:24;2.40;;;1.90;;
11596;SDS011;5854;48.072;16.286;2023-06-10T01:27:54;1.95;;;1.85;;
11596;SDS011;5854;48.072;16.286;2023-06-10T01:30:32;2.95;;;1.65;;
11596;SDS011;5854;48.072;16.286;2023-06-10T01:33:09;2.65;;;2.45;;
11596;SDS011;5854;48.072;16.286;2023-06-10T01:35:37;2.00;;;1.90;;
11596;SDS011;5854;48.072;16.286;2023-06-10T01:38:06;2.47;;;2.28;;
11596;SDS011;5854;48.072;16.286;2023-06-10T01:40:34;2.40;;;1.83;;
11596;SDS011;5854;48.072;16.286;2023-06-10T01:43:02;2.17;;;1.85;;
11596;SDS011;5854;48.072;16.286;2023-06-10T01:45:29;2.35;;;2.10;;
11596;SDS011;5854;48.072;16.286;2023-06-10T01:47:56;2.55;;;2.40;;
11596;SDS011;5854;48.072;16.286;2023-06-10T01:50:23;2.80;;;2.40;;
11596;SDS011;5854;48.072;16.286;2023-06-10T01:52:50;2.58;;;2.40;;
11596;SDS011;5854;48.072;16.286;2023-06-10T01:55:19;5.05;;;2.47;;
11596;SDS011;5854;48.072;16.286;2023-06-10T01:57:46;2.70;;;2.50;;
11596;SDS011;5854;48.072;16.286;2023-06-10T02:00:13;5.75;;;2.35;;
11596;SDS011;5854;48.072;16.286;2023-06-10T02:02:41;2.38;;;2.28;;
11596;SDS011;5854;48.072;16.286;2023-06-10T02:05:08;2.33;;;2.13;;
11596;SDS011;5854;48.072;16.286;2023-06-10T02:07:36;2.42;;;2.33;;
11596;SDS011;5854;48.072;16.286;2023-06-10T02:10:03;3.70;;;2.40;;
11596;SDS011;5854;48.072;16.286;2023-06-10T02:12:33;5.40;;;4.00;;
11596;SDS011;5854;48.072;16.286;2023-06-10T02:15:00;3.35;;;3.03;;
11596;SDS011;5854;48.072;16.286;2023-06-10T02:17:27;2.60;;;2.50;;
11596;SDS011;5854;48.072;16.286;2023-06-10T02:19:54;3.13;;;2.92;;
11596;SDS011;5854;48.072;16.286;2023-06-10T02:22:22;3.03;;;2.83;;
11596;SDS011;5854;48.072;16.286;2023-06-10T02:24:50;3.30;;;3.10;;
11596;SDS011;5854;48.072;16.286;2023-06-10T02:27:17;3.90;;;2.47;;
11596;SDS011;5854;48.072;16.286;2023-06-10T02:29:47;2.97;;;2.78;;
11596;SDS011;5854;48.072;16.286;2023-06-10T02:32:14;2.78;;;2.58;;
11596;SDS011;5854;48.072;16.286;2023-06-10T02:34:41;2.97;;;2.70;;
11596;SDS011;5854;48.072;16.286;2023-06-10T02:37:08;3.67;;;3.47;;
11596;SDS011;5854;48.072;16.286;2023-06-10T02:39:35;3.33;;;3.03;;
11596;SDS011;5854;48.072;16.286;2023-06-10T02:42:03;3.35;;;3.05;;
11596;SDS011;5854;48.072;16.286;2023-06-10T02:44:31;3.20;;;3.00;;
11596;SDS011;5854;48.072;16.286;2023-06-10T02:47:00;4.40;;;3.53;;
11596;SDS011;5854;48.072;16.286;2023-06-10T02:49:27;3.25;;;2.92;;
11596;SDS011;5854;48.072;16.286;2023-06-10T02:51:54;5.88;;;2.85;;
11596;SDS011;5854;48.072;16.286;2023-06-10T02:54:22;5.20;;;3.65;;
11596;SDS011;5854;48.072;16.286;2023-06-10T02:56:49;2.88;;;2.67;;
11596;SDS011;5854;48.072;16.286;2023-06-10T02:59:17;3.15;;;2.95;;
11596;SDS011;5854;48.072;16.286;2023-06-10T03:01:45;4.57;;;3.72;;
11596;SDS011;5854;48.072;16.286;2023-06-10T03:04:13;4.07;;;3.65;;
11596;SDS011;5854;48.072;16.286;2023-06-10T03:06:40;3.47;;;3.25;;
11596;SDS011;5854;48.072;16.286;2023-06-10T03:09:07;7.72;;;3.90;;
11596;SDS011;5854;48.072;16.286;2023-06-10T03:11:34;3.38;;;3.17;;
11596;SDS011;5854;48.072;16.286;2023-06-10T03:14:02;3.83;;;3.53;;
11596;SDS011;5854;48.072;16.286;2023-06-10T03:16:29;3.60;;;3.38;;
11596;SDS011;5854;48.072;16.286;2023-06-10T03:18:57;4.05;;;3.80;;
11596;SDS011;5854;48.072;16.286;2023-06-10T03:21:26;4.65;;;4.25;;
11596;SDS011;5854;48.072;16.286;2023-06-10T03:23:53;4.03;;;3.72;;
11596;SDS011;5854;48.072;16.286;2023-06-10T03:26:20;3.30;;;3.10;;
11596;SDS011;5854;48.072;16.286;2023-06-10T03:28:47;3.67;;;3.40;;
11596;SDS011;5854;48.072;16.286;2023-06-10T03:31:14;4.18;;;3.92;;
11596;SDS011;5854;48.072;16.286;2023-06-10T03:33:42;5.38;;;3.80;;
11596;SDS011;5854;48.072;16.286;2023-06-10T03:36:10;7.05;;;5.40;;
11596;SDS011;5854;48.072;16.286;2023-06-10T03:38:38;6.22;;;3.55;;
11596;SDS011;5854;48.072;16.286;2023-06-10T03:41:05;3.55;;;3.35;;
11596;SDS011;5854;48.072;16.286;2023-06-10T03:43:32;4.43;;;4.13;;
11596;SDS011;5854;48.072;16.286;2023-06-10T03:45:59;3.97;;;3.75;;
11596;SDS011;5854;48.072;16.286;2023-06-10T03:48:26;3.88;;;3.67;;
11596;SDS011;5854;48.072;16.286;2023-06-10T03:50:56;4.97;;;4.45;;
11596;SDS011;5854;48.072;16.286;2023-06-10T03:53:23;4.57;;;4.22;;
11596;SDS011;5854;48.072;16.286;2023-06-10T03:55:52;2.85;;;2.65;;
11596;SDS011;5854;48.072;16.286;2023-06-10T03:58:19;3.80;;;3.60;;
11596;SDS011;5854;48.072;16.286;2023-06-10T04:00:46;6.40;;;3.53;;
11596;SDS011;5854;48.072;16.286;2023-06-10T04:03:14;4.00;;;3.70;;
11596;SDS011;5854;48.072;16.286;2023-06-10T04:05:41;3.97;;;3.78;;
11596;SDS011;5854;48.072;16.286;2023-06-10T04:08:08;4.72;;;4.43;;
11596;SDS011;5854;48.072;16.286;2023-06-10T04:10:35;4.68;;;4.38;;
11596;SDS011;5854;48.072;16.286;2023-06-10T04:13:04;8.10;;;5.35;;
11596;SDS011;5854;48.072;16.286;2023-06-10T04:15:31;5.55;;;4.93;;
11596;SDS011;5854;48.072;16.286;2023-06-10T04:17:58;4.93;;;4.63;;
11596;SDS011;5854;48.072;16.286;2023-06-10T04:20:26;4.38;;;4.07;;
11596;SDS011;5854;48.072;16.286;2023-06-10T04:22:53;4.88;;;4.47;;
11596;SDS011;5854;48.072;16.286;2023-06-10T04:25:20;4.75;;;4.40;;
11596;SDS011;5854;48.072;16.286;2023-06-10T04:27:48;3.72;;;3.53;;
11596;SDS011;5854;48.072;16.286;2023-06-10T04:30:16;5.93;;;4.60;;
11596;SDS011;5854;48.072;16.286;2023-06-10T04:32:43;5.47;;;5.13;;
11596;SDS011;5854;48.072;16.286;2023-06-10T04:35:12;5.60;;;5.30;;
11596;SDS011;5854;48.072;16.286;2023-06-10T04:37:39;5.63;;;5.22;;
11596;SDS011;5854;48.072;16.286;2023-06-10T04:40:07;8.00;;;5.43;;
11596;SDS011;5854;48.072;16.286;2023-06-10T04:42:35;5.22;;;4.82;;
11596;SDS011;5854;48.072;16.286;2023-06-10T04:45:03;6.72;;;5.57;;
11596;SDS011;5854;48.072;16.286;2023-06-10T04:47:33;5.30;;;4.95;;
11596;SDS011;5854;48.072;16.286;2023-06-10T04:50:00;5.13;;;4.82;;
11596;SDS011;5854;48.072;16.286;2023-06-10T04:52:28;5.95;;;5.45;;
11596;SDS011;5854;48.072;16.286;2023-06-10T04:54:55;7.18;;;5.65;;
11596;SDS011;5854;48.072;16.286;2023-06-10T04:57:24;6.10;;;5.70;;
11596;SDS011;5854;48.072;16.286;2023-06-10T04:59:52;6.53;;;5.50;;
11596;SDS011;5854;48.072;16.286;2023-06-10T05:02:19;7.75;;;6.15;;
11596;SDS011;5854;48.072;16.286;2023-06-10T05:04:47;6.72;;;6.15;;
11596;SDS011;5854;48.072;16.286;2023-06-10T05:07:14;7.75;;;5.65;;
11596;SDS011;5854;48.072;16.286;2023-06-10T05:09:41;6.57;;;6.10;;
11596;SDS011;5854;48.072;16.286;2023-06-10T05:12:08;7.18;;;6.57;;
11596;SDS011;5854;48.072;16.286;2023-06-10T05:14:36;6.25;;;5.82;;
11596;SDS011;5854;48.072;16.286;2023-06-10T05:17:03;6.15;;;5.70;;
11596;SDS011;5854;48.072;16.286;2023-06-10T05:19:31;8.02;;;7.32;;
11596;SDS011;5854;48.072;16.286;2023-06-10T05:22:02;6.60;;;6.18;;
11596;SDS011;5854;48.072;16.286;2023-06-10T05:24:29;7.43;;;6.80;;
11596;SDS011;5854;48.072;16.286;2023-06-10T05:26:56;5.82;;;5.43;;
11596;SDS011;5854;48.072;16.286;2023-06-10T05:29:24;7.43;;;6.93;;
11596;SDS011;5854;48.072;16.286;2023-06-10T05:31:51;5.90;;;5.40;;
11596;SDS011;5854;48.072;16.286;2023-06-10T05:34:21;6.07;;;5.68;;
11596;SDS011;5854;48.072;16.286;2023-06-10T05:36:48;6.15;;;5.75;;
11596;SDS011;5854;48.072;16.286;2023-06-10T05:39:17;6.53;;;6.03;;
11596;SDS011;5854;48.072;16.286;2023-06-10T05:41:44;6.53;;;6.13;;
11596;SDS011;5854;48.072;16.286;2023-06-10T05:44:12;7.25;;;6.75;;
11596;SDS011;5854;48.072;16.286;2023-06-10T05:46:39;6.35;;;5.85;;
11596;SDS011;5854;48.072;16.286;2023-06-10T05:49:06;7.43;;;6.93;;
11596;SDS011;5854;48.072;16.286;2023-06-10T05:51:33;8.05;;;7.45;;
11596;SDS011;5854;48.072;16.286;2023-06-10T05:54:01;8.52;;;6.70;;
11596;SDS011;5854;48.072;16.286;2023-06-10T05:56:30;6.38;;;6.07;;
11596;SDS011;5854;48.072;16.286;2023-06-10T05:58:57;7.10;;;6.60;;
11596;SDS011;5854;48.072;16.286;2023-06-10T06:01:24;7.43;;;6.93;;
11596;SDS011;5854;48.072;16.286;2023-06-10T06:03:51;7.40;;;6.90;;
11596;SDS011;5854;48.072;16.286;2023-06-10T06:06:18;7.38;;;6.88;;
11596;SDS011;5854;48.072;16.286;2023-06-10T06:08:46;6.55;;;6.15;;
11596;SDS011;5854;48.072;16.286;2023-06-10T06:11:13;6.90;;;6.50;;
11596;SDS011;5854;48.072;16.286;2023-06-10T06:13:42;6.25;;;5.85;;
11596;SDS011;5854;48.072;16.286;2023-06-10T06:16:09;9.25;;;7.70;;
11596;SDS011;5854;48.072;16.286;2023-06-10T06:18:36;8.23;;;7.53;;
11596;SDS011;5854;48.072;16.286;2023-06-10T06:21:03;7.55;;;7.05;;
11596;SDS011;5854;48.072;16.286;2023-06-10T06:23:30;7.30;;;6.85;;
11596;SDS011;5854;48.072;16.286;2023-06-10T06:25:57;8.15;;;7.50;;
11596;SDS011;5854;48.072;16.286;2023-06-10T06:28:24;7.32;;;6.70;;
11596;SDS011;5854;48.072;16.286;2023-06-10T06:30:55;6.80;;;6.40;;
11596;SDS011;5854;48.072;16.286;2023-06-10T06:33:22;11.88;;;7.32;;
11596;SDS011;5854;48.072;16.286;2023-06-10T06:35:51;7.63;;;6.95;;
11596;SDS011;5854;48.072;16.286;2023-06-10T06:43:12;8.70;;;7.80;;
11596;SDS011;5854;48.072;16.286;2023-06-10T06:45:39;8.07;;;7.28;;
11596;SDS011;5854;48.072;16.286;2023-06-10T06:48:07;7.75;;;7.25;;
11596;SDS011;5854;48.072;16.286;2023-06-10T06:50:34;7.32;;;6.68;;
11596;SDS011;5854;48.072;16.286;2023-06-10T06:53:01;7.65;;;7.15;;
11596;SDS011;5854;48.072;16.286;2023-06-10T06:55:28;7.53;;;6.90;;
11596;SDS011;5854;48.072;16.286;2023-06-10T06:57:55;7.97;;;7.38;;
11596;SDS011;5854;48.072;16.286;2023-06-10T07:00:23;8.70;;;7.78;;
11596;SDS011;5854;48.072;16.286;2023-06-10T07:02:50;8.18;;;7.57;;
11596;SDS011;5854;48.072;16.286;2023-06-10T07:05:19;9.15;;;8.18;;
11596;SDS011;5854;48.072;16.286;2023-06-10T07:07:46;8.20;;;7.60;;
11596;SDS011;5854;48.072;16.286;2023-06-10T07:10:13;7.95;;;7.35;;
11596;SDS011;5854;48.072;16.286;2023-06-10T07:12:40;9.10;;;8.30;;
11596;SDS011;5854;48.072;16.286;2023-06-10T07:15:08;7.80;;;7.30;;
11596;SDS011;5854;48.072;16.286;2023-06-10T07:17:35;11.60;;;8.23;;
11596;SDS011;5854;48.072;16.286;2023-06-10T07:20:02;11.07;;;9.93;;
11596;SDS011;5854;48.072;16.286;2023-06-10T07:22:31;10.13;;;9.27;;
11596;SDS011;5854;48.072;16.286;2023-06-10T07:24:58;11.30;;;10.20;;
11596;SDS011;5854;48.072;16.286;2023-06-10T07:27:25;10.23;;;9.30;;
11596;SDS011;5854;48.072;16.286;2023-06-10T07:29:53;11.70;;;10.43;;
11596;SDS011;5854;48.072;16.286;2023-06-10T07:32:20;10.65;;;9.60;;
11596;SDS011;5854;48.072;16.286;2023-06-10T07:34:48;11.13;;;9.68;;
11596;SDS011;5854;48.072;16.286;2023-06-10T07:37:15;11.82;;;10.70;;
11596;SDS011;5854;48.072;16.286;2023-06-10T07:39:46;13.82;;;10.13;;
11596;SDS011;5854;48.072;16.286;2023-06-10T07:42:13;12.70;;;10.32;;
11596;SDS011;5854;48.072;16.286;2023-06-10T07:44:40;11.85;;;10.65;;
11596;SDS011;5854;48.072;16.286;2023-06-10T07:47:07;11.20;;;10.20;;
11596;SDS011;5854;48.072;16.286;2023-06-10T07:49:34;12.00;;;10.88;;
11596;SDS011;5854;48.072;16.286;2023-06-10T07:52:01;13.75;;;10.38;;
11596;SDS011;5854;48.072;16.286;2023-06-10T07:54:28;9.93;;;9.07;;
11596;SDS011;5854;48.072;16.286;2023-06-10T07:56:56;9.80;;;8.80;;
11596;SDS011;5854;48.072;16.286;2023-06-10T07:59:23;9.90;;;8.88;;
11596;SDS011;5854;48.072;16.286;2023-06-10T08:01:51;9.50;;;8.75;;
11596;SDS011;5854;48.072;16.286;2023-06-10T08:04:19;11.20;;;10.20;;
11596;SDS011;5854;48.072;16.286;2023-06-10T08:06:46;9.38;;;8.52;;
11596;SDS011;5854;48.072;16.286;2023-06-10T08:09:13;11.07;;;9.63;;
11596;SDS011;5854;48.072;16.286;2023-06-10T08:11:40;9.98;;;9.15;;
11596;SDS011;5854;48.072;16.286;2023-06-10T08:14:08;9.13;;;8.43;;
11596;SDS011;5854;48.072;16.286;2023-06-10T08:16:36;9.32;;;8.38;;
11596;SDS011;5854;48.072;16.286;2023-06-10T08:19:03;9.73;;;8.82;;
11596;SDS011;5854;48.072;16.286;2023-06-10T08:21:30;11.25;;;9.45;;
11596;SDS011;5854;48.072;16.286;2023-06-10T08:23:57;9.13;;;8.43;;
11596;SDS011;5854;48.072;16.286;2023-06-10T08:26:24;9.13;;;8.30;;
11596;SDS011;5854;48.072;16.286;2023-06-10T08:28:51;11.18;;;8.80;;
11596;SDS011;5854;48.072;16.286;2023-06-10T08:31:20;9.15;;;8.35;;
11596;SDS011;5854;48.072;16.286;2023-06-10T08:33:48;9.05;;;8.25;;
11596;SDS011;5854;48.072;16.286;2023-06-10T08:36:15;8.93;;;8.27;;
11596;SDS011;5854;48.072;16.286;2023-06-10T08:38:42;9.30;;;8.45;;
11596;SDS011;5854;48.072;16.286;2023-06-10T08:41:09;9.50;;;8.65;;
11596;SDS011;5854;48.072;16.286;2023-06-10T08:43:41;10.45;;;9.45;;
11596;SDS011;5854;48.072;16.286;2023-06-10T08:46:12;9.75;;;8.82;;
11596;SDS011;5854;48.072;16.286;2023-06-10T08:48:43;8.38;;;7.68;;
11596;SDS011;5854;48.072;16.286;2023-06-10T08:51:11;8.77;;;7.95;;
11596;SDS011;5854;48.072;16.286;2023-06-10T08:53:42;10.25;;;9.35;;
11596;SDS011;5854;48.072;16.286;2023-06-10T08:56:15;8.90;;;8.20;;
11596;SDS011;5854;48.072;16.286;2023-06-10T08:58:43;8.65;;;7.95;;
11596;SDS011;5854;48.072;16.286;2023-06-10T09:01:12;9.88;;;9.00;;
11596;SDS011;5854;48.072;16.286;2023-06-10T09:03:43;8.02;;;7.43;;
11596;SDS011;5854;48.072;16.286;2023-06-10T09:06:10;8.60;;;8.00;;
11596;SDS011;5854;48.072;16.286;2023-06-10T09:13:32;8.48;;;7.78;;
11596;SDS011;5854;48.072;16.286;2023-06-10T09:15:59;8.75;;;7.90;;
11596;SDS011;5854;48.072;16.286;2023-06-10T09:18:27;7.75;;;6.70;;
11596;SDS011;5854;48.072;16.286;2023-06-10T09:20:56;8.00;;;7.40;;
11596;SDS011;5854;48.072;16.286;2023-06-10T09:23:23;8.15;;;7.45;;
11596;SDS011;5854;48.072;16.286;2023-06-10T09:25:55;8.45;;;7.60;;
11596;SDS011;5854;48.072;16.286;2023-06-10T09:28:23;11.02;;;7.50;;
11596;SDS011;5854;48.072;16.286;2023-06-10T09:31:00;8.35;;;7.75;;
11596;SDS011;5854;48.072;16.286;2023-06-10T09:33:29;7.47;;;6.88;;
11596;SDS011;5854;48.072;16.286;2023-06-10T09:35:59;7.82;;;6.93;;
11596;SDS011;5854;48.072;16.286;2023-06-10T09:38:32;7.80;;;7.15;;
11596;SDS011;5854;48.072;16.286;2023-06-10T09:41:00;7.38;;;6.80;;
11596;SDS011;5854;48.072;16.286;2023-06-10T09:43:38;7.80;;;7.22;;
11596;SDS011;5854;48.072;16.286;2023-06-10T09:46:13;8.25;;;7.28;;
11596;SDS011;5854;48.072;16.286;2023-06-10T09:48:42;7.43;;;6.93;;
11596;SDS011;5854;48.072;16.286;2023-06-10T09:51:12;6.70;;;6.30;;
11596;SDS011;5854;48.072;16.286;2023-06-10T09:53:42;6.63;;;6.20;;
11596;SDS011;5854;48.072;16.286;2023-06-10T09:56:09;6.60;;;5.97;;
11596;SDS011;5854;48.072;16.286;2023-06-10T09:58:36;5.40;;;5.00;;
11596;SDS011;5854;48.072;16.286;2023-06-10T10:01:05;7.53;;;6.10;;
11596;SDS011;5854;48.072;16.286;2023-06-10T10:03:32;5.88;;;5.45;;
11596;SDS011;5854;48.072;16.286;2023-06-10T10:05:59;6.22;;;5.80;;
11596;SDS011;5854;48.072;16.286;2023-06-10T10:08:28;6.43;;;6.03;;
11596;SDS011;5854;48.072;16.286;2023-06-10T10:10:56;6.47;;;5.97;;
11596;SDS011;5854;48.072;16.286;2023-06-10T10:13:24;6.88;;;6.47;;
11596;SDS011;5854;48.072;16.286;2023-06-10T10:15:53;6.70;;;6.30;;
11596;SDS011;5854;48.072;16.286;2023-06-10T10:18:23;6.95;;;6.53;;
11596;SDS011;5854;48.072;16.286;2023-06-10T10:20:55;6.57;;;6.18;;
11596;SDS011;5854;48.072;16.286;2023-06-10T10:23:24;6.65;;;5.75;;
11596;SDS011;5854;48.072;16.286;2023-06-10T10:25:58;5.50;;;5.05;;
11596;SDS011;5854;48.072;16.286;2023-06-10T10:28:34;6.80;;;6.05;;
11596;SDS011;5854;48.072;16.286;2023-06-10T10:31:08;6.10;;;5.40;;
11596;SDS011;5854;48.072;16.286;2023-06-10T10:33:40;5.72;;;5.43;;
11596;SDS011;5854;48.072;16.286;2023-06-10T10:36:13;5.43;;;5.13;;
11596;SDS011;5854;48.072;16.286;2023-06-10T10:38:43;5.22;;;4.80;;
11596;SDS011;5854;48.072;16.286;2023-06-10T10:41:14;5.43;;;4.93;;
11596;SDS011;5854;48.072;16.286;2023-06-10T10:43:42;5.43;;;5.03;;
11596;SDS011;5854;48.072;16.286;2023-06-10T10:46:12;5.25;;;4.72;;
11596;SDS011;5854;48.072;16.286;2023-06-10T10:48:41;4.20;;;4.00;;
11596;SDS011;5854;48.072;16.286;2023-06-10T10:51:09;5.40;;;4.88;;
11596;SDS011;5854;48.072;16.286;2023-06-10T10:53:36;5.13;;;4.82;;
11596;SDS011;5854;48.072;16.286;2023-06-10T10:56:06;5.00;;;4.38;;
11596;SDS011;5854;48.072;16.286;2023-06-10T10:58:35;8.52;;;5.05;;
11596;SDS011;5854;48.072;16.286;2023-06-10T11:01:12;9.35;;;4.50;;
11596;SDS011;5854;48.072;16.286;2023-06-10T11:03:43;4.75;;;4.35;;
11596;SDS011;5854;48.072;16.286;2023-06-10T11:06:12;6.28;;;5.07;;
11596;SDS011;5854;48.072;16.286;2023-06-10T11:08:47;4.38;;;4.07;;
11596;SDS011;5854;48.072;16.286;2023-06-10T11:11:21;4.63;;;4.32;;
11596;SDS011;5854;48.072;16.286;2023-06-10T11:14:07;5.38;;;4.93;;
11596;SDS011;5854;48.072;16.286;2023-06-10T11:16:40;4.47;;;4.18;;
11596;SDS011;5854;48.072;16.286;2023-06-10T11:21:57;4.55;;;4.20;;
11596;SDS011;5854;48.072;16.286;2023-06-10T11:24:25;4.50;;;4.15;;
11596;SDS011;5854;48.072;16.286;2023-06-10T11:26:54;4.75;;;4.45;;
11596;SDS011;5854;48.072;16.286;2023-06-10T11:29:21;3.92;;;3.72;;
11596;SDS011;5854;48.072;16.286;2023-06-10T11:31:51;3.72;;;3.45;;
11596;SDS011;5854;48.072;16.286;2023-06-10T11:34:23;3.83;;;3.63;;
11596;SDS011;5854;48.072;16.286;2023-06-10T11:36:52;7.20;;;4.25;;
11596;SDS011;5854;48.072;16.286;2023-06-10T11:39:20;4.95;;;4.65;;
11596;SDS011;5854;48.072;16.286;2023-06-10T11:44:20;5.22;;;3.65;;
11596;SDS011;5854;48.072;16.286;2023-06-10T11:46:47;4.22;;;3.92;;
11596;SDS011;5854;48.072;16.286;2023-06-10T11:51:43;4.55;;;4.15;;
11596;SDS011;5854;48.072;16.286;2023-06-10T11:54:14;4.00;;;3.35;;
11596;SDS011;5854;48.072;16.286;2023-06-10T11:56:43;2.92;;;2.72;;
11596;SDS011;5854;48.072;16.286;2023-06-10T11:59:10;4.85;;;3.42;;
11596;SDS011;5854;48.072;16.286;2023-06-10T12:01:42;3.53;;;3.22;;
11596;SDS011;5854;48.072;16.286;2023-06-10T12:04:11;4.30;;;3.90;;
11596;SDS011;5854;48.072;16.286;2023-06-10T12:06:40;4.10;;;3.08;;
11596;SDS011;5854;48.072;16.286;2023-06-10T12:09:18;5.53;;;3.17;;
11596;SDS011;5854;48.072;16.286;2023-06-10T12:11:49;4.30;;;2.97;;
11596;SDS011;5854;48.072;16.286;2023-06-10T12:17:21;4.20;;;3.80;;
